sensor_id;sensor_type;location;lat;lon;timestamp;temperature;humidity
12588;DHT22;6359;51.450;7.346;2022-08-05T00:02:11;20.30;99.90
12588;DHT22;6359;51.450;7.346;2022-08-05T00:04:40;20.20;99.90
12588;DHT22;6359;51.450;7.346;2022-08-05T00:07:07;20.20;99.90
12588;DHT22;6359;51.450;7.346;2022-08-05T00:09:34;20.20;99.90
12588;DHT22;6359;51.450;7.346;2022-08-05T00:12:01;20.20;99.90
12588;DHT22;6359;51.450;7.346;2022-08-05T00:14:28;20.20;99.90
12588;DHT22;6359;51.450;7.346;2022-08-05T00:16:55;20.10;99.90
12588;DHT22;6359;51.450;7.346;2022-08-05T00:19:22;20.10;99.90
12588;DHT22;6359;51.450;7.346;2022-08-05T00:21:50;20.20;99.90
12588;DHT22;6359;51.450;7.346;2022-08-05T00:24:17;20.10;99.90
12588;DHT22;6359;51.450;7.346;2022-08-05T00:26:44;20.00;99.90
12588;DHT22;6359;51.450;7.346;2022-08-05T00:29:11;20.00;99.90
12588;DHT22;6359;51.450;7.346;2022-08-05T00:31:38;20.00;99.90
12588;DHT22;6359;51.450;7.346;2022-08-05T00:34:05;20.00;99.90
12588;DHT22;6359;51.450;7.346;2022-08-05T00:36:32;19.90;99.90
12588;DHT22;6359;51.450;7.346;2022-08-05T00:39:00;19.90;99.90
12588;DHT22;6359;51.450;7.346;2022-08-05T00:41:28;19.80;99.90
12588;DHT22;6359;51.450;7.346;2022-08-05T00:43:56;19.90;99.90
12588;DHT22;6359;51.450;7.346;2022-08-05T00:46:23;19.80;99.90
12588;DHT22;6359;51.450;7.346;2022-08-05T00:48:50;19.80;99.90
12588;DHT22;6359;51.450;7.346;2022-08-05T00:51:18;19.70;99.90
12588;DHT22;6359;51.450;7.346;2022-08-05T00:53:46;19.70;99.90
12588;DHT22;6359;51.450;7.346;2022-08-05T00:56:15;19.60;99.90
12588;DHT22;6359;51.450;7.346;2022-08-05T00:58:42;19.50;99.90
12588;DHT22;6359;51.450;7.346;2022-08-05T01:01:10;19.40;99.90
12588;DHT22;6359;51.450;7.346;2022-08-05T01:03:37;19.40;99.90
12588;DHT22;6359;51.450;7.346;2022-08-05T01:06:05;19.40;99.90
12588;DHT22;6359;51.450;7.346;2022-08-05T01:08:32;19.40;99.90
12588;DHT22;6359;51.450;7.346;2022-08-05T01:11:03;19.40;99.90
12588;DHT22;6359;51.450;7.346;2022-08-05T01:13:44;19.30;99.90
12588;DHT22;6359;51.450;7.346;2022-08-05T01:16:25;19.30;99.90
12588;DHT22;6359;51.450;7.346;2022-08-05T01:18:58;19.10;99.90
12588;DHT22;6359;51.450;7.346;2022-08-05T01:21:42;18.90;99.90
12588;DHT22;6359;51.450;7.346;2022-08-05T01:24:28;18.80;99.90
12588;DHT22;6359;51.450;7.346;2022-08-05T01:27:06;18.90;99.90
12588;DHT22;6359;51.450;7.346;2022-08-05T01:29:39;18.80;99.90
12588;DHT22;6359;51.450;7.346;2022-08-05T01:32:08;18.80;99.90
12588;DHT22;6359;51.450;7.346;2022-08-05T01:34:40;18.70;99.90
12588;DHT22;6359;51.450;7.346;2022-08-05T01:37:14;18.60;99.90
12588;DHT22;6359;51.450;7.346;2022-08-05T01:39:42;18.60;99.90
12588;DHT22;6359;51.450;7.346;2022-08-05T01:42:12;18.50;99.90
12588;DHT22;6359;51.450;7.346;2022-08-05T01:44:42;18.50;99.90
12588;DHT22;6359;51.450;7.346;2022-08-05T01:47:10;18.50;99.90
12588;DHT22;6359;51.450;7.346;2022-08-05T01:49:39;18.50;99.90
12588;DHT22;6359;51.450;7.346;2022-08-05T01:52:08;18.60;99.90
12588;DHT22;6359;51.450;7.346;2022-08-05T01:54:39;18.60;99.90
12588;DHT22;6359;51.450;7.346;2022-08-05T01:57:08;18.70;99.90
12588;DHT22;6359;51.450;7.346;2022-08-05T01:59:36;18.80;99.90
12588;DHT22;6359;51.450;7.346;2022-08-05T02:02:06;19.00;99.90
12588;DHT22;6359;51.450;7.346;2022-08-05T02:04:36;19.10;99.90
12588;DHT22;6359;51.450;7.346;2022-08-05T02:07:03;19.20;99.90
12588;DHT22;6359;51.450;7.346;2022-08-05T02:09:30;19.30;99.90
12588;DHT22;6359;51.450;7.346;2022-08-05T02:12:02;19.30;99.90
12588;DHT22;6359;51.450;7.346;2022-08-05T02:14:33;19.30;99.90
12588;DHT22;6359;51.450;7.346;2022-08-05T02:17:09;19.30;99.90
12588;DHT22;6359;51.450;7.346;2022-08-05T02:19:43;19.40;99.90
12588;DHT22;6359;51.450;7.346;2022-08-05T02:22:15;19.40;99.90
12588;DHT22;6359;51.450;7.346;2022-08-05T02:24:46;19.40;99.90
12588;DHT22;6359;51.450;7.346;2022-08-05T02:27:16;19.40;99.90
12588;DHT22;6359;51.450;7.346;2022-08-05T02:29:44;19.50;99.90
12588;DHT22;6359;51.450;7.346;2022-08-05T02:32:16;19.50;99.90
12588;DHT22;6359;51.450;7.346;2022-08-05T02:34:45;19.50;99.90
12588;DHT22;6359;51.450;7.346;2022-08-05T02:37:13;19.50;99.90
12588;DHT22;6359;51.450;7.346;2022-08-05T02:39:41;19.50;99.90
12588;DHT22;6359;51.450;7.346;2022-08-05T02:42:09;19.50;99.90
12588;DHT22;6359;51.450;7.346;2022-08-05T02:44:37;19.40;99.90
12588;DHT22;6359;51.450;7.346;2022-08-05T02:47:08;19.40;99.90
12588;DHT22;6359;51.450;7.346;2022-08-05T02:49:39;19.30;99.90
12588;DHT22;6359;51.450;7.346;2022-08-05T02:52:10;19.30;99.90
12588;DHT22;6359;51.450;7.346;2022-08-05T02:54:38;19.30;99.90
12588;DHT22;6359;51.450;7.346;2022-08-05T02:57:07;19.30;99.90
12588;DHT22;6359;51.450;7.346;2022-08-05T02:59:36;19.20;99.90
12588;DHT22;6359;51.450;7.346;2022-08-05T03:02:03;19.20;99.90
12588;DHT22;6359;51.450;7.346;2022-08-05T03:04:31;19.20;99.90
12588;DHT22;6359;51.450;7.346;2022-08-05T03:07:00;19.10;99.90
12588;DHT22;6359;51.450;7.346;2022-08-05T03:09:27;19.10;99.90
12588;DHT22;6359;51.450;7.346;2022-08-05T03:11:54;19.00;99.90
12588;DHT22;6359;51.450;7.346;2022-08-05T03:14:21;18.90;99.90
12588;DHT22;6359;51.450;7.346;2022-08-05T03:16:48;18.80;99.90
12588;DHT22;6359;51.450;7.346;2022-08-05T03:19:15;18.80;99.90
12588;DHT22;6359;51.450;7.346;2022-08-05T03:21:42;18.80;99.90
12588;DHT22;6359;51.450;7.346;2022-08-05T03:24:10;18.70;99.90
12588;DHT22;6359;51.450;7.346;2022-08-05T03:26:38;18.60;99.90
12588;DHT22;6359;51.450;7.346;2022-08-05T03:29:05;18.70;99.90
12588;DHT22;6359;51.450;7.346;2022-08-05T03:31:32;18.70;99.90
12588;DHT22;6359;51.450;7.346;2022-08-05T03:33:59;18.60;99.90
12588;DHT22;6359;51.450;7.346;2022-08-05T03:36:26;18.50;99.90
12588;DHT22;6359;51.450;7.346;2022-08-05T03:38:53;18.50;99.90
12588;DHT22;6359;51.450;7.346;2022-08-05T03:41:21;18.50;99.90
12588;DHT22;6359;51.450;7.346;2022-08-05T03:43:48;18.50;99.90
12588;DHT22;6359;51.450;7.346;2022-08-05T03:46:15;18.50;99.90
12588;DHT22;6359;51.450;7.346;2022-08-05T03:48:42;18.30;99.90
12588;DHT22;6359;51.450;7.346;2022-08-05T03:51:14;18.10;99.90
12588;DHT22;6359;51.450;7.346;2022-08-05T03:53:49;17.90;99.90
12588;DHT22;6359;51.450;7.346;2022-08-05T03:56:24;17.80;99.90
12588;DHT22;6359;51.450;7.346;2022-08-05T03:58:54;17.70;99.90
12588;DHT22;6359;51.450;7.346;2022-08-05T04:01:23;17.70;99.90
12588;DHT22;6359;51.450;7.346;2022-08-05T04:03:52;17.70;99.90
12588;DHT22;6359;51.450;7.346;2022-08-05T04:06:19;17.60;99.90
12588;DHT22;6359;51.450;7.346;2022-08-05T04:08:47;17.50;99.90
12588;DHT22;6359;51.450;7.346;2022-08-05T04:11:14;17.50;99.90
12588;DHT22;6359;51.450;7.346;2022-08-05T04:13:44;17.50;99.90
12588;DHT22;6359;51.450;7.346;2022-08-05T04:16:12;17.40;99.90
12588;DHT22;6359;51.450;7.346;2022-08-05T04:18:39;17.50;99.90
12588;DHT22;6359;51.450;7.346;2022-08-05T04:21:06;17.50;99.90
12588;DHT22;6359;51.450;7.346;2022-08-05T04:23:34;17.50;99.90
12588;DHT22;6359;51.450;7.346;2022-08-05T04:26:02;17.60;99.90
12588;DHT22;6359;51.450;7.346;2022-08-05T04:28:29;17.70;99.90
12588;DHT22;6359;51.450;7.346;2022-08-05T04:30:58;17.80;99.90
12588;DHT22;6359;51.450;7.346;2022-08-05T04:33:25;17.90;99.90
12588;DHT22;6359;51.450;7.346;2022-08-05T04:35:52;18.00;99.90
12588;DHT22;6359;51.450;7.346;2022-08-05T04:38:19;18.00;99.90
12588;DHT22;6359;51.450;7.346;2022-08-05T04:40:46;18.10;99.90
12588;DHT22;6359;51.450;7.346;2022-08-05T04:43:13;18.10;99.90
12588;DHT22;6359;51.450;7.346;2022-08-05T04:45:40;18.10;99.90
12588;DHT22;6359;51.450;7.346;2022-08-05T04:48:11;18.20;99.90
12588;DHT22;6359;51.450;7.346;2022-08-05T04:50:40;18.20;99.90
12588;DHT22;6359;51.450;7.346;2022-08-05T04:53:07;18.10;99.90
12588;DHT22;6359;51.450;7.346;2022-08-05T04:55:35;18.20;99.90
12588;DHT22;6359;51.450;7.346;2022-08-05T04:58:02;18.20;99.90
12588;DHT22;6359;51.450;7.346;2022-08-05T05:00:30;18.20;99.90
12588;DHT22;6359;51.450;7.346;2022-08-05T05:02:57;18.30;99.90
12588;DHT22;6359;51.450;7.346;2022-08-05T05:05:26;18.30;99.90
12588;DHT22;6359;51.450;7.346;2022-08-05T05:07:53;18.30;99.90
12588;DHT22;6359;51.450;7.346;2022-08-05T05:10:20;18.30;99.90
12588;DHT22;6359;51.450;7.346;2022-08-05T05:12:47;18.30;99.90
12588;DHT22;6359;51.450;7.346;2022-08-05T05:15:14;18.30;99.90
12588;DHT22;6359;51.450;7.346;2022-08-05T05:17:42;18.40;99.90
12588;DHT22;6359;51.450;7.346;2022-08-05T05:20:10;18.40;99.90
12588;DHT22;6359;51.450;7.346;2022-08-05T05:22:39;18.40;99.90
12588;DHT22;6359;51.450;7.346;2022-08-05T05:25:07;18.50;99.90
12588;DHT22;6359;51.450;7.346;2022-08-05T05:27:35;18.60;99.90
12588;DHT22;6359;51.450;7.346;2022-08-05T05:30:03;18.60;99.90
12588;DHT22;6359;51.450;7.346;2022-08-05T05:32:30;18.50;99.90
12588;DHT22;6359;51.450;7.346;2022-08-05T05:34:57;18.50;99.90
12588;DHT22;6359;51.450;7.346;2022-08-05T05:37:24;18.50;99.90
12588;DHT22;6359;51.450;7.346;2022-08-05T05:39:52;18.40;99.90
12588;DHT22;6359;51.450;7.346;2022-08-05T05:42:19;18.40;99.90
12588;DHT22;6359;51.450;7.346;2022-08-05T05:44:46;18.50;99.90
12588;DHT22;6359;51.450;7.346;2022-08-05T05:47:13;18.50;99.90
12588;DHT22;6359;51.450;7.346;2022-08-05T05:49:40;18.50;99.90
12588;DHT22;6359;51.450;7.346;2022-08-05T05:52:07;18.60;99.90
12588;DHT22;6359;51.450;7.346;2022-08-05T05:54:34;18.60;99.90
12588;DHT22;6359;51.450;7.346;2022-08-05T05:57:02;18.60;99.90
12588;DHT22;6359;51.450;7.346;2022-08-05T05:59:29;18.50;99.90
12588;DHT22;6359;51.450;7.346;2022-08-05T06:01:56;18.40;99.90
12588;DHT22;6359;51.450;7.346;2022-08-05T06:04:23;18.40;99.90
12588;DHT22;6359;51.450;7.346;2022-08-05T06:06:49;18.40;99.90
12588;DHT22;6359;51.450;7.346;2022-08-05T06:09:16;18.30;99.90
12588;DHT22;6359;51.450;7.346;2022-08-05T06:11:43;18.30;99.90
12588;DHT22;6359;51.450;7.346;2022-08-05T06:14:12;18.40;99.90
12588;DHT22;6359;51.450;7.346;2022-08-05T06:16:39;18.60;99.90
12588;DHT22;6359;51.450;7.346;2022-08-05T06:19:06;18.60;99.90
12588;DHT22;6359;51.450;7.346;2022-08-05T06:21:34;18.70;99.90
12588;DHT22;6359;51.450;7.346;2022-08-05T06:24:01;18.70;99.90
12588;DHT22;6359;51.450;7.346;2022-08-05T06:26:28;18.60;99.90
12588;DHT22;6359;51.450;7.346;2022-08-05T06:28:55;18.60;99.90
12588;DHT22;6359;51.450;7.346;2022-08-05T06:31:23;18.70;99.90
12588;DHT22;6359;51.450;7.346;2022-08-05T06:33:50;18.60;99.90
12588;DHT22;6359;51.450;7.346;2022-08-05T06:36:17;18.60;99.90
12588;DHT22;6359;51.450;7.346;2022-08-05T06:38:44;18.50;99.90
12588;DHT22;6359;51.450;7.346;2022-08-05T06:41:11;18.60;99.90
12588;DHT22;6359;51.450;7.346;2022-08-05T06:43:37;18.70;99.90
12588;DHT22;6359;51.450;7.346;2022-08-05T06:46:05;18.70;99.90
12588;DHT22;6359;51.450;7.346;2022-08-05T06:48:33;18.60;99.90
12588;DHT22;6359;51.450;7.346;2022-08-05T06:51:00;18.60;99.90
12588;DHT22;6359;51.450;7.346;2022-08-05T06:53:28;18.60;99.90
12588;DHT22;6359;51.450;7.346;2022-08-05T06:55:56;18.60;99.90
12588;DHT22;6359;51.450;7.346;2022-08-05T06:58:24;18.60;99.90
12588;DHT22;6359;51.450;7.346;2022-08-05T07:00:50;18.60;99.90
12588;DHT22;6359;51.450;7.346;2022-08-05T07:03:17;18.50;99.90
12588;DHT22;6359;51.450;7.346;2022-08-05T07:05:46;18.50;99.90
12588;DHT22;6359;51.450;7.346;2022-08-05T07:08:13;18.50;99.90
12588;DHT22;6359;51.450;7.346;2022-08-05T07:10:39;18.40;99.90
12588;DHT22;6359;51.450;7.346;2022-08-05T07:13:06;18.30;99.90
12588;DHT22;6359;51.450;7.346;2022-08-05T07:15:51;18.30;99.90
12588;DHT22;6359;51.450;7.346;2022-08-05T07:18:35;18.20;99.90
12588;DHT22;6359;51.450;7.346;2022-08-05T07:21:04;18.20;99.90
12588;DHT22;6359;51.450;7.346;2022-08-05T07:23:31;18.20;99.90
12588;DHT22;6359;51.450;7.346;2022-08-05T07:25:58;18.20;99.90
12588;DHT22;6359;51.450;7.346;2022-08-05T07:28:25;18.20;99.90
12588;DHT22;6359;51.450;7.346;2022-08-05T07:30:52;18.20;99.90
12588;DHT22;6359;51.450;7.346;2022-08-05T07:33:19;18.20;99.90
12588;DHT22;6359;51.450;7.346;2022-08-05T07:35:47;18.20;99.90
12588;DHT22;6359;51.450;7.346;2022-08-05T07:38:15;18.00;99.90
12588;DHT22;6359;51.450;7.346;2022-08-05T07:40:43;18.00;99.90
12588;DHT22;6359;51.450;7.346;2022-08-05T07:43:10;18.10;99.90
12588;DHT22;6359;51.450;7.346;2022-08-05T07:45:38;18.10;99.90
12588;DHT22;6359;51.450;7.346;2022-08-05T07:48:05;18.00;99.90
12588;DHT22;6359;51.450;7.346;2022-08-05T07:50:32;18.00;99.90
12588;DHT22;6359;51.450;7.346;2022-08-05T07:52:59;18.00;99.90
12588;DHT22;6359;51.450;7.346;2022-08-05T07:55:27;18.00;99.90
12588;DHT22;6359;51.450;7.346;2022-08-05T07:57:56;17.90;99.90
12588;DHT22;6359;51.450;7.346;2022-08-05T08:00:23;17.90;99.90
12588;DHT22;6359;51.450;7.346;2022-08-05T08:02:50;17.80;99.90
12588;DHT22;6359;51.450;7.346;2022-08-05T08:05:17;17.80;99.90
12588;DHT22;6359;51.450;7.346;2022-08-05T08:07:44;17.80;99.90
12588;DHT22;6359;51.450;7.346;2022-08-05T08:10:12;17.80;99.90
12588;DHT22;6359;51.450;7.346;2022-08-05T08:12:40;17.80;99.90
12588;DHT22;6359;51.450;7.346;2022-08-05T08:15:08;17.90;99.90
12588;DHT22;6359;51.450;7.346;2022-08-05T08:17:36;17.90;99.90
12588;DHT22;6359;51.450;7.346;2022-08-05T08:20:03;18.00;99.90
12588;DHT22;6359;51.450;7.346;2022-08-05T08:22:31;18.00;99.90
12588;DHT22;6359;51.450;7.346;2022-08-05T08:24:58;18.00;99.90
12588;DHT22;6359;51.450;7.346;2022-08-05T08:27:25;17.90;99.90
12588;DHT22;6359;51.450;7.346;2022-08-05T08:29:53;17.90;99.90
12588;DHT22;6359;51.450;7.346;2022-08-05T08:32:20;17.90;99.90
12588;DHT22;6359;51.450;7.346;2022-08-05T08:34:47;18.00;99.90
12588;DHT22;6359;51.450;7.346;2022-08-05T08:37:14;18.10;99.90
12588;DHT22;6359;51.450;7.346;2022-08-05T08:39:41;18.10;99.90
12588;DHT22;6359;51.450;7.346;2022-08-05T08:42:09;18.00;99.90
12588;DHT22;6359;51.450;7.346;2022-08-05T08:44:37;18.00;99.90
12588;DHT22;6359;51.450;7.346;2022-08-05T08:47:07;18.00;99.90
12588;DHT22;6359;51.450;7.346;2022-08-05T08:49:35;18.00;99.90
12588;DHT22;6359;51.450;7.346;2022-08-05T08:52:10;18.00;99.90
12588;DHT22;6359;51.450;7.346;2022-08-05T08:54:38;18.00;99.90
12588;DHT22;6359;51.450;7.346;2022-08-05T08:57:05;17.90;99.90
12588;DHT22;6359;51.450;7.346;2022-08-05T08:59:33;17.80;99.90
12588;DHT22;6359;51.450;7.346;2022-08-05T09:02:04;17.80;99.90
12588;DHT22;6359;51.450;7.346;2022-08-05T09:04:34;17.90;99.90
12588;DHT22;6359;51.450;7.346;2022-08-05T09:07:03;18.00;99.90
12588;DHT22;6359;51.450;7.346;2022-08-05T09:09:31;18.10;99.90
12588;DHT22;6359;51.450;7.346;2022-08-05T09:11:59;18.10;99.90
12588;DHT22;6359;51.450;7.346;2022-08-05T09:14:26;18.00;99.90
12588;DHT22;6359;51.450;7.346;2022-08-05T09:16:53;18.10;99.90
12588;DHT22;6359;51.450;7.346;2022-08-05T09:19:20;18.20;99.90
12588;DHT22;6359;51.450;7.346;2022-08-05T09:21:48;18.20;99.90
12588;DHT22;6359;51.450;7.346;2022-08-05T09:24:16;18.20;99.90
12588;DHT22;6359;51.450;7.346;2022-08-05T09:26:46;18.10;99.90
12588;DHT22;6359;51.450;7.346;2022-08-05T09:29:14;18.10;99.90
12588;DHT22;6359;51.450;7.346;2022-08-05T09:31:41;18.10;99.90
12588;DHT22;6359;51.450;7.346;2022-08-05T09:34:10;18.10;99.90
12588;DHT22;6359;51.450;7.346;2022-08-05T09:36:42;18.10;99.90
12588;DHT22;6359;51.450;7.346;2022-08-05T09:39:12;18.10;99.90
12588;DHT22;6359;51.450;7.346;2022-08-05T09:41:55;18.20;99.90
12588;DHT22;6359;51.450;7.346;2022-08-05T09:44:35;18.30;99.90
12588;DHT22;6359;51.450;7.346;2022-08-05T09:47:08;18.40;99.90
12588;DHT22;6359;51.450;7.346;2022-08-05T09:49:39;18.40;99.90
12588;DHT22;6359;51.450;7.346;2022-08-05T09:52:18;18.50;99.90
12588;DHT22;6359;51.450;7.346;2022-08-05T09:54:58;18.50;99.90
12588;DHT22;6359;51.450;7.346;2022-08-05T09:57:35;18.60;99.90
12588;DHT22;6359;51.450;7.346;2022-08-05T10:00:08;18.70;99.90
12588;DHT22;6359;51.450;7.346;2022-08-05T10:02:38;18.70;99.90
12588;DHT22;6359;51.450;7.346;2022-08-05T10:05:07;18.70;99.90
12588;DHT22;6359;51.450;7.346;2022-08-05T10:07:47;18.70;99.90
12588;DHT22;6359;51.450;7.346;2022-08-05T10:10:17;18.60;99.90
12588;DHT22;6359;51.450;7.346;2022-08-05T10:12:46;18.70;99.90
12588;DHT22;6359;51.450;7.346;2022-08-05T10:15:18;18.70;99.90
12588;DHT22;6359;51.450;7.346;2022-08-05T10:18:11;18.60;99.90
12588;DHT22;6359;51.450;7.346;2022-08-05T10:20:41;18.60;99.90
12588;DHT22;6359;51.450;7.346;2022-08-05T10:23:10;18.50;99.90
12588;DHT22;6359;51.450;7.346;2022-08-05T10:25:39;18.50;99.90
12588;DHT22;6359;51.450;7.346;2022-08-05T10:28:07;18.30;99.90
12588;DHT22;6359;51.450;7.346;2022-08-05T10:30:34;18.20;99.90
12588;DHT22;6359;51.450;7.346;2022-08-05T10:33:03;18.20;99.90
12588;DHT22;6359;51.450;7.346;2022-08-05T10:35:30;18.20;99.90
12588;DHT22;6359;51.450;7.346;2022-08-05T10:37:57;18.40;99.90
12588;DHT22;6359;51.450;7.346;2022-08-05T10:40:30;18.40;99.90
12588;DHT22;6359;51.450;7.346;2022-08-05T10:43:07;18.40;99.90
12588;DHT22;6359;51.450;7.346;2022-08-05T10:45:35;18.30;99.90
12588;DHT22;6359;51.450;7.346;2022-08-05T10:48:32;18.50;99.90
12588;DHT22;6359;51.450;7.346;2022-08-05T10:51:02;18.70;99.90
12588;DHT22;6359;51.450;7.346;2022-08-05T10:53:41;18.80;99.90
12588;DHT22;6359;51.450;7.346;2022-08-05T10:56:11;18.80;99.90
12588;DHT22;6359;51.450;7.346;2022-08-05T10:58:49;18.80;99.90
12588;DHT22;6359;51.450;7.346;2022-08-05T11:01:29;19.00;99.90
12588;DHT22;6359;51.450;7.346;2022-08-05T11:04:01;19.10;99.90
12588;DHT22;6359;51.450;7.346;2022-08-05T11:06:29;19.10;99.90
12588;DHT22;6359;51.450;7.346;2022-08-05T11:09:18;19.20;99.90
12588;DHT22;6359;51.450;7.346;2022-08-05T11:11:47;19.50;99.90
12588;DHT22;6359;51.450;7.346;2022-08-05T11:14:24;19.70;99.90
12588;DHT22;6359;51.450;7.346;2022-08-05T11:17:28;20.00;99.90
12588;DHT22;6359;51.450;7.346;2022-08-05T11:19:56;20.80;99.90
12588;DHT22;6359;51.450;7.346;2022-08-05T11:22:43;21.60;99.90
12588;DHT22;6359;51.450;7.346;2022-08-05T11:25:32;22.30;99.90
12588;DHT22;6359;51.450;7.346;2022-08-05T11:28:41;22.30;99.90
12588;DHT22;6359;51.450;7.346;2022-08-05T11:31:23;22.50;99.90
12588;DHT22;6359;51.450;7.346;2022-08-05T11:33:57;23.10;99.90
12588;DHT22;6359;51.450;7.346;2022-08-05T11:36:54;23.10;99.90
12588;DHT22;6359;51.450;7.346;2022-08-05T11:39:46;23.60;99.90
12588;DHT22;6359;51.450;7.346;2022-08-05T11:42:15;23.50;99.90
12588;DHT22;6359;51.450;7.346;2022-08-05T11:44:42;24.10;99.90
12588;DHT22;6359;51.450;7.346;2022-08-05T11:47:12;24.50;99.90
12588;DHT22;6359;51.450;7.346;2022-08-05T11:49:39;24.80;99.90
12588;DHT22;6359;51.450;7.346;2022-08-05T11:52:06;24.90;99.90
12588;DHT22;6359;51.450;7.346;2022-08-05T11:54:35;24.40;99.90
12588;DHT22;6359;51.450;7.346;2022-08-05T11:57:04;24.10;99.90
12588;DHT22;6359;51.450;7.346;2022-08-05T11:59:31;24.10;99.90
12588;DHT22;6359;51.450;7.346;2022-08-05T12:02:01;24.30;99.90
12588;DHT22;6359;51.450;7.346;2022-08-05T12:04:39;24.30;99.90
12588;DHT22;6359;51.450;7.346;2022-08-05T12:07:09;24.50;99.90
12588;DHT22;6359;51.450;7.346;2022-08-05T12:09:37;24.60;99.90
12588;DHT22;6359;51.450;7.346;2022-08-05T12:12:05;24.60;99.90
12588;DHT22;6359;51.450;7.346;2022-08-05T12:14:38;25.00;99.90
12588;DHT22;6359;51.450;7.346;2022-08-05T12:17:09;25.00;99.90
12588;DHT22;6359;51.450;7.346;2022-08-05T12:19:45;24.90;99.90
12588;DHT22;6359;51.450;7.346;2022-08-05T12:22:12;24.70;99.90
12588;DHT22;6359;51.450;7.346;2022-08-05T12:24:40;24.50;99.90
12588;DHT22;6359;51.450;7.346;2022-08-05T12:27:08;23.90;99.90
12588;DHT22;6359;51.450;7.346;2022-08-05T12:29:36;23.70;99.90
12588;DHT22;6359;51.450;7.346;2022-08-05T12:32:04;23.60;99.90
12588;DHT22;6359;51.450;7.346;2022-08-05T12:34:34;24.00;99.90
12588;DHT22;6359;51.450;7.346;2022-08-05T12:37:06;24.20;99.90
12588;DHT22;6359;51.450;7.346;2022-08-05T12:39:37;24.00;99.90
12588;DHT22;6359;51.450;7.346;2022-08-05T12:42:12;23.40;99.90
12588;DHT22;6359;51.450;7.346;2022-08-05T12:44:42;23.20;99.90
12588;DHT22;6359;51.450;7.346;2022-08-05T12:47:10;23.10;99.90
12588;DHT22;6359;51.450;7.346;2022-08-05T12:49:43;22.90;99.90
12588;DHT22;6359;51.450;7.346;2022-08-05T12:52:15;23.10;99.90
12588;DHT22;6359;51.450;7.346;2022-08-05T12:54:45;23.60;99.90
12588;DHT22;6359;51.450;7.346;2022-08-05T12:57:13;23.90;99.90
12588;DHT22;6359;51.450;7.346;2022-08-05T12:59:45;24.40;99.90
12588;DHT22;6359;51.450;7.346;2022-08-05T13:02:15;24.10;99.90
12588;DHT22;6359;51.450;7.346;2022-08-05T13:04:43;24.00;99.90
12588;DHT22;6359;51.450;7.346;2022-08-05T13:07:12;23.70;99.90
12588;DHT22;6359;51.450;7.346;2022-08-05T13:09:42;23.40;99.90
12588;DHT22;6359;51.450;7.346;2022-08-05T13:12:11;23.10;99.90
12588;DHT22;6359;51.450;7.346;2022-08-05T13:14:40;23.10;99.90
12588;DHT22;6359;51.450;7.346;2022-08-05T13:17:08;23.10;99.90
12588;DHT22;6359;51.450;7.346;2022-08-05T13:19:36;23.00;99.90
12588;DHT22;6359;51.450;7.346;2022-08-05T13:22:03;23.00;99.90
12588;DHT22;6359;51.450;7.346;2022-08-05T13:24:30;22.80;99.90
12588;DHT22;6359;51.450;7.346;2022-08-05T13:26:58;22.50;99.90
12588;DHT22;6359;51.450;7.346;2022-08-05T13:29:25;22.20;99.90
12588;DHT22;6359;51.450;7.346;2022-08-05T13:31:52;21.90;99.90
12588;DHT22;6359;51.450;7.346;2022-08-05T13:34:22;21.70;99.90
12588;DHT22;6359;51.450;7.346;2022-08-05T13:36:49;21.80;99.90
12588;DHT22;6359;51.450;7.346;2022-08-05T13:39:16;21.90;99.90
12588;DHT22;6359;51.450;7.346;2022-08-05T13:41:43;22.00;99.90
12588;DHT22;6359;51.450;7.346;2022-08-05T13:44:11;22.30;99.90
12588;DHT22;6359;51.450;7.346;2022-08-05T13:46:38;22.70;99.90
12588;DHT22;6359;51.450;7.346;2022-08-05T13:49:05;23.20;99.90
12588;DHT22;6359;51.450;7.346;2022-08-05T13:51:32;23.60;99.90
12588;DHT22;6359;51.450;7.346;2022-08-05T13:53:59;23.90;99.90
12588;DHT22;6359;51.450;7.346;2022-08-05T13:56:26;23.90;99.90
12588;DHT22;6359;51.450;7.346;2022-08-05T13:58:53;24.00;99.90
12588;DHT22;6359;51.450;7.346;2022-08-05T14:01:21;24.20;99.90
12588;DHT22;6359;51.450;7.346;2022-08-05T14:03:48;24.10;99.90
12588;DHT22;6359;51.450;7.346;2022-08-05T14:06:29;23.80;99.90
12588;DHT22;6359;51.450;7.346;2022-08-05T14:08:57;23.40;99.90
12588;DHT22;6359;51.450;7.346;2022-08-05T14:11:24;23.20;99.90
12588;DHT22;6359;51.450;7.346;2022-08-05T14:13:52;23.10;99.90
12588;DHT22;6359;51.450;7.346;2022-08-05T14:16:21;22.90;99.90
12588;DHT22;6359;51.450;7.346;2022-08-05T14:18:48;22.70;99.90
12588;DHT22;6359;51.450;7.346;2022-08-05T14:21:15;22.40;99.90
12588;DHT22;6359;51.450;7.346;2022-08-05T14:23:42;22.00;99.90
12588;DHT22;6359;51.450;7.346;2022-08-05T14:26:11;21.60;99.90
12588;DHT22;6359;51.450;7.346;2022-08-05T14:28:57;21.30;99.90
12588;DHT22;6359;51.450;7.346;2022-08-05T14:31:27;21.10;99.90
12588;DHT22;6359;51.450;7.346;2022-08-05T14:34:06;21.00;99.90
12588;DHT22;6359;51.450;7.346;2022-08-05T14:36:33;21.00;99.90
12588;DHT22;6359;51.450;7.346;2022-08-05T14:39:07;20.90;99.90
12588;DHT22;6359;51.450;7.346;2022-08-05T14:41:49;21.00;99.90
12588;DHT22;6359;51.450;7.346;2022-08-05T14:44:21;20.90;99.90
12588;DHT22;6359;51.450;7.346;2022-08-05T14:46:52;20.90;99.90
12588;DHT22;6359;51.450;7.346;2022-08-05T14:49:25;21.00;99.90
12588;DHT22;6359;51.450;7.346;2022-08-05T14:51:57;21.00;99.90
12588;DHT22;6359;51.450;7.346;2022-08-05T14:54:24;21.00;99.90
12588;DHT22;6359;51.450;7.346;2022-08-05T14:56:51;21.10;99.90
12588;DHT22;6359;51.450;7.346;2022-08-05T14:59:17;21.30;99.90
12588;DHT22;6359;51.450;7.346;2022-08-05T15:01:45;21.40;99.90
12588;DHT22;6359;51.450;7.346;2022-08-05T15:04:13;21.40;99.90
12588;DHT22;6359;51.450;7.346;2022-08-05T15:06:42;21.40;99.90
12588;DHT22;6359;51.450;7.346;2022-08-05T15:09:09;21.40;99.90
12588;DHT22;6359;51.450;7.346;2022-08-05T15:11:36;21.40;99.90
12588;DHT22;6359;51.450;7.346;2022-08-05T15:14:03;21.60;99.90
12588;DHT22;6359;51.450;7.346;2022-08-05T15:16:30;21.80;99.90
12588;DHT22;6359;51.450;7.346;2022-08-05T15:18:57;22.20;99.90
12588;DHT22;6359;51.450;7.346;2022-08-05T15:21:25;22.50;99.90
12588;DHT22;6359;51.450;7.346;2022-08-05T15:23:52;22.80;99.90
12588;DHT22;6359;51.450;7.346;2022-08-05T15:26:19;22.80;99.90
12588;DHT22;6359;51.450;7.346;2022-08-05T15:28:46;22.80;99.90
12588;DHT22;6359;51.450;7.346;2022-08-05T15:31:13;22.70;99.90
12588;DHT22;6359;51.450;7.346;2022-08-05T15:33:40;22.70;99.90
12588;DHT22;6359;51.450;7.346;2022-08-05T15:36:07;22.70;99.90
12588;DHT22;6359;51.450;7.346;2022-08-05T15:38:36;22.60;99.90
12588;DHT22;6359;51.450;7.346;2022-08-05T15:41:03;22.70;99.90
12588;DHT22;6359;51.450;7.346;2022-08-05T15:43:30;22.80;99.90
12588;DHT22;6359;51.450;7.346;2022-08-05T15:45:57;23.10;99.90
12588;DHT22;6359;51.450;7.346;2022-08-05T15:48:25;23.20;99.90
12588;DHT22;6359;51.450;7.346;2022-08-05T15:50:52;23.10;99.90
12588;DHT22;6359;51.450;7.346;2022-08-05T15:53:18;23.20;99.90
12588;DHT22;6359;51.450;7.346;2022-08-05T15:55:47;23.10;99.90
12588;DHT22;6359;51.450;7.346;2022-08-05T15:58:14;22.80;99.90
12588;DHT22;6359;51.450;7.346;2022-08-05T16:00:41;22.30;99.90